sensor_id;sensor_type;location;lat;lon;timestamp;P1;durP1;ratioP1;P2;durP2;ratioP2
5987;SDS011;3021;51.000;6.980;2023-07-09T00:01:51;13.02;;;6.30;;
5987;SDS011;3021;51.000;6.980;2023-07-09T00:04:16;8.52;;;5.63;;
5987;SDS011;3021;51.000;6.980;2023-07-09T00:06:42;8.57;;;5.30;;
5987;SDS011;3021;51.000;6.980;2023-07-09T00:09:18;10.52;;;6.25;;
5987;SDS011;3021;51.000;6.980;2023-07-09T00:11:45;8.57;;;6.25;;
5987;SDS011;3021;51.000;6.980;2023-07-09T00:14:12;9.48;;;5.88;;
5987;SDS011;3021;51.000;6.980;2023-07-09T00:16:41;8.95;;;6.15;;
5987;SDS011;3021;51.000;6.980;2023-07-09T00:19:15;10.13;;;5.65;;
5987;SDS011;3021;51.000;6.980;2023-07-09T00:21:47;11.15;;;6.60;;
5987;SDS011;3021;51.000;6.980;2023-07-09T00:24:18;9.05;;;6.63;;
5987;SDS011;3021;51.000;6.980;2023-07-09T00:26:43;10.80;;;6.18;;
5987;SDS011;3021;51.000;6.980;2023-07-09T00:29:12;10.30;;;6.35;;
5987;SDS011;3021;51.000;6.980;2023-07-09T00:31:38;10.75;;;6.13;;
5987;SDS011;3021;51.000;6.980;2023-07-09T00:34:09;9.52;;;6.05;;
5987;SDS011;3021;51.000;6.980;2023-07-09T00:36:39;13.13;;;7.63;;
5987;SDS011;3021;51.000;6.980;2023-07-09T00:39:21;10.02;;;7.03;;
5987;SDS011;3021;51.000;6.980;2023-07-09T00:41:48;12.43;;;6.22;;
5987;SDS011;3021;51.000;6.980;2023-07-09T00:49:34;12.65;;;7.22;;
5987;SDS011;3021;51.000;6.980;2023-07-09T00:52:40;8.98;;;6.75;;
5987;SDS011;3021;51.000;6.980;2023-07-09T00:55:04;13.25;;;7.63;;
5987;SDS011;3021;51.000;6.980;2023-07-09T00:57:34;10.93;;;7.90;;
5987;SDS011;3021;51.000;6.980;2023-07-09T01:00:04;12.18;;;7.57;;
5987;SDS011;3021;51.000;6.980;2023-07-09T01:02:35;12.50;;;7.82;;
5987;SDS011;3021;51.000;6.980;2023-07-09T01:05:01;12.77;;;7.13;;
5987;SDS011;3021;51.000;6.980;2023-07-09T01:07:28;13.48;;;7.20;;
5987;SDS011;3021;51.000;6.980;2023-07-09T01:09:54;10.95;;;6.95;;
5987;SDS011;3021;51.000;6.980;2023-07-09T01:12:20;10.68;;;7.18;;
5987;SDS011;3021;51.000;6.980;2023-07-09T01:14:47;10.70;;;6.82;;
5987;SDS011;3021;51.000;6.980;2023-07-09T01:17:16;11.73;;;6.70;;
5987;SDS011;3021;51.000;6.980;2023-07-09T01:19:43;9.75;;;6.95;;
5987;SDS011;3021;51.000;6.980;2023-07-09T01:22:14;14.55;;;7.18;;
5987;SDS011;3021;51.000;6.980;2023-07-09T01:27:31;10.02;;;6.82;;
5987;SDS011;3021;51.000;6.980;2023-07-09T01:29:58;9.77;;;6.43;;
5987;SDS011;3021;51.000;6.980;2023-07-09T01:32:25;10.85;;;6.90;;
5987;SDS011;3021;51.000;6.980;2023-07-09T01:34:52;9.35;;;6.30;;
5987;SDS011;3021;51.000;6.980;2023-07-09T01:37:21;12.65;;;6.32;;
5987;SDS011;3021;51.000;6.980;2023-07-09T01:39:50;8.95;;;6.18;;
5987;SDS011;3021;51.000;6.980;2023-07-09T01:42:18;9.95;;;6.28;;
5987;SDS011;3021;51.000;6.980;2023-07-09T01:44:46;10.38;;;6.57;;
5987;SDS011;3021;51.000;6.980;2023-07-09T01:47:13;10.30;;;6.90;;
5987;SDS011;3021;51.000;6.980;2023-07-09T01:49:38;9.35;;;6.57;;
5987;SDS011;3021;51.000;6.980;2023-07-09T01:52:04;9.90;;;6.53;;
5987;SDS011;3021;51.000;6.980;2023-07-09T01:54:33;11.50;;;6.40;;
5987;SDS011;3021;51.000;6.980;2023-07-09T01:57:12;9.60;;;6.50;;
5987;SDS011;3021;51.000;6.980;2023-07-09T01:59:53;9.75;;;6.57;;
5987;SDS011;3021;51.000;6.980;2023-07-09T02:02:20;11.25;;;6.18;;
5987;SDS011;3021;51.000;6.980;2023-07-09T02:04:46;10.65;;;6.30;;
5987;SDS011;3021;51.000;6.980;2023-07-09T02:07:16;10.10;;;6.07;;
5987;SDS011;3021;51.000;6.980;2023-07-09T02:09:42;9.35;;;6.30;;
5987;SDS011;3021;51.000;6.980;2023-07-09T02:12:09;9.98;;;6.07;;
5987;SDS011;3021;51.000;6.980;2023-07-09T02:14:35;11.60;;;6.43;;
5987;SDS011;3021;51.000;6.980;2023-07-09T02:17:01;8.13;;;6.05;;
5987;SDS011;3021;51.000;6.980;2023-07-09T02:19:27;11.15;;;5.72;;
5987;SDS011;3021;51.000;6.980;2023-07-09T02:21:55;9.90;;;6.18;;
5987;SDS011;3021;51.000;6.980;2023-07-09T02:24:20;8.70;;;6.00;;
5987;SDS011;3021;51.000;6.980;2023-07-09T02:26:49;12.48;;;7.25;;
5987;SDS011;3021;51.000;6.980;2023-07-09T02:29:15;11.13;;;6.32;;
5987;SDS011;3021;51.000;6.980;2023-07-09T02:31:41;10.05;;;6.25;;
5987;SDS011;3021;51.000;6.980;2023-07-09T02:34:06;11.32;;;6.63;;
5987;SDS011;3021;51.000;6.980;2023-07-09T02:36:32;9.82;;;6.30;;
5987;SDS011;3021;51.000;6.980;2023-07-09T02:38:57;9.15;;;5.95;;
5987;SDS011;3021;51.000;6.980;2023-07-09T02:41:22;10.05;;;6.28;;
5987;SDS011;3021;51.000;6.980;2023-07-09T02:43:48;9.80;;;6.30;;
5987;SDS011;3021;51.000;6.980;2023-07-09T02:46:13;11.23;;;6.28;;
5987;SDS011;3021;51.000;6.980;2023-07-09T02:48:38;13.13;;;6.50;;
5987;SDS011;3021;51.000;6.980;2023-07-09T02:51:04;9.93;;;6.15;;
5987;SDS011;3021;51.000;6.980;2023-07-09T02:53:29;14.48;;;6.85;;
5987;SDS011;3021;51.000;6.980;2023-07-09T02:55:54;11.63;;;6.82;;
5987;SDS011;3021;51.000;6.980;2023-07-09T02:58:19;12.45;;;6.95;;
5987;SDS011;3021;51.000;6.980;2023-07-09T03:00:48;10.43;;;6.95;;
5987;SDS011;3021;51.000;6.980;2023-07-09T03:03:18;10.93;;;6.90;;
5987;SDS011;3021;51.000;6.980;2023-07-09T03:05:44;10.70;;;6.40;;
5987;SDS011;3021;51.000;6.980;2023-07-09T03:08:10;10.15;;;6.75;;
5987;SDS011;3021;51.000;6.980;2023-07-09T03:10:36;9.88;;;6.50;;
5987;SDS011;3021;51.000;6.980;2023-07-09T03:13:01;14.52;;;6.80;;
5987;SDS011;3021;51.000;6.980;2023-07-09T03:15:26;9.90;;;6.20;;
5987;SDS011;3021;51.000;6.980;2023-07-09T03:17:51;10.13;;;7.07;;
5987;SDS011;3021;51.000;6.980;2023-07-09T03:20:17;9.93;;;6.25;;
5987;SDS011;3021;51.000;6.980;2023-07-09T03:22:42;11.98;;;6.90;;
5987;SDS011;3021;51.000;6.980;2023-07-09T03:25:07;13.98;;;6.75;;
5987;SDS011;3021;51.000;6.980;2023-07-09T03:27:33;14.60;;;6.55;;
5987;SDS011;3021;51.000;6.980;2023-07-09T03:29:58;8.52;;;6.07;;
5987;SDS011;3021;51.000;6.980;2023-07-09T03:32:25;8.70;;;5.90;;
5987;SDS011;3021;51.000;6.980;2023-07-09T03:34:50;9.32;;;5.88;;
5987;SDS011;3021;51.000;6.980;2023-07-09T03:37:18;8.32;;;6.35;;
5987;SDS011;3021;51.000;6.980;2023-07-09T03:39:45;10.70;;;6.57;;
5987;SDS011;3021;51.000;6.980;2023-07-09T03:42:10;9.73;;;6.57;;
5987;SDS011;3021;51.000;6.980;2023-07-09T03:44:35;10.00;;;6.35;;
5987;SDS011;3021;51.000;6.980;2023-07-09T03:47:01;11.57;;;6.97;;
5987;SDS011;3021;51.000;6.980;2023-07-09T03:49:26;11.75;;;7.07;;
5987;SDS011;3021;51.000;6.980;2023-07-09T03:51:52;9.82;;;6.00;;
5987;SDS011;3021;51.000;6.980;2023-07-09T03:54:17;10.90;;;6.45;;
5987;SDS011;3021;51.000;6.980;2023-07-09T03:56:42;11.70;;;6.63;;
5987;SDS011;3021;51.000;6.980;2023-07-09T03:59:07;10.10;;;6.07;;
5987;SDS011;3021;51.000;6.980;2023-07-09T04:01:33;10.65;;;6.47;;
5987;SDS011;3021;51.000;6.980;2023-07-09T04:03:58;12.65;;;6.72;;
5987;SDS011;3021;51.000;6.980;2023-07-09T04:06:23;11.82;;;6.75;;
5987;SDS011;3021;51.000;6.980;2023-07-09T04:08:49;9.77;;;6.82;;
5987;SDS011;3021;51.000;6.980;2023-07-09T04:11:14;10.35;;;6.72;;
5987;SDS011;3021;51.000;6.980;2023-07-09T04:13:39;11.73;;;6.53;;
5987;SDS011;3021;51.000;6.980;2023-07-09T04:16:05;9.63;;;5.95;;
5987;SDS011;3021;51.000;6.980;2023-07-09T04:18:30;12.07;;;6.00;;
5987;SDS011;3021;51.000;6.980;2023-07-09T04:20:55;10.45;;;6.50;;
5987;SDS011;3021;51.000;6.980;2023-07-09T04:23:21;9.05;;;6.10;;
5987;SDS011;3021;51.000;6.980;2023-07-09T04:25:46;7.97;;;5.33;;
5987;SDS011;3021;51.000;6.980;2023-07-09T04:28:11;10.15;;;6.22;;
5987;SDS011;3021;51.000;6.980;2023-07-09T04:30:37;8.30;;;5.85;;
5987;SDS011;3021;51.000;6.980;2023-07-09T04:33:02;11.93;;;6.38;;
5987;SDS011;3021;51.000;6.980;2023-07-09T04:35:27;8.32;;;6.07;;
5987;SDS011;3021;51.000;6.980;2023-07-09T04:37:53;14.20;;;6.22;;
5987;SDS011;3021;51.000;6.980;2023-07-09T04:40:18;13.23;;;6.43;;
5987;SDS011;3021;51.000;6.980;2023-07-09T04:42:44;11.57;;;6.25;;
5987;SDS011;3021;51.000;6.980;2023-07-09T04:45:10;10.43;;;6.45;;
5987;SDS011;3021;51.000;6.980;2023-07-09T04:47:37;11.35;;;6.20;;
5987;SDS011;3021;51.000;6.980;2023-07-09T04:50:03;11.75;;;6.53;;
5987;SDS011;3021;51.000;6.980;2023-07-09T04:52:30;11.40;;;6.20;;
5987;SDS011;3021;51.000;6.980;2023-07-09T04:54:56;10.38;;;6.18;;
5987;SDS011;3021;51.000;6.980;2023-07-09T04:57:21;12.32;;;5.65;;
5987;SDS011;3021;51.000;6.980;2023-07-09T04:59:47;12.32;;;6.50;;
5987;SDS011;3021;51.000;6.980;2023-07-09T05:02:12;9.38;;;5.60;;
5987;SDS011;3021;51.000;6.980;2023-07-09T05:04:38;10.15;;;5.72;;
5987;SDS011;3021;51.000;6.980;2023-07-09T05:07:03;12.98;;;5.93;;
5987;SDS011;3021;51.000;6.980;2023-07-09T05:09:28;11.43;;;5.55;;
5987;SDS011;3021;51.000;6.980;2023-07-09T05:11:54;10.50;;;5.90;;
5987;SDS011;3021;51.000;6.980;2023-07-09T05:14:19;9.30;;;6.05;;
5987;SDS011;3021;51.000;6.980;2023-07-09T05:16:45;8.20;;;5.20;;
5987;SDS011;3021;51.000;6.980;2023-07-09T05:19:10;9.27;;;5.38;;
5987;SDS011;3021;51.000;6.980;2023-07-09T05:21:36;9.75;;;5.55;;
5987;SDS011;3021;51.000;6.980;2023-07-09T05:24:01;10.77;;;5.35;;
5987;SDS011;3021;51.000;6.980;2023-07-09T05:26:26;9.18;;;5.22;;
5987;SDS011;3021;51.000;6.980;2023-07-09T05:28:52;11.23;;;5.55;;
5987;SDS011;3021;51.000;6.980;2023-07-09T05:31:17;11.60;;;5.65;;
5987;SDS011;3021;51.000;6.980;2023-07-09T05:33:43;9.85;;;5.05;;
5987;SDS011;3021;51.000;6.980;2023-07-09T05:36:09;7.18;;;5.40;;
5987;SDS011;3021;51.000;6.980;2023-07-09T05:38:41;9.52;;;5.78;;
5987;SDS011;3021;51.000;6.980;2023-07-09T05:41:10;11.52;;;5.80;;
5987;SDS011;3021;51.000;6.980;2023-07-09T05:43:36;13.40;;;5.65;;
5987;SDS011;3021;51.000;6.980;2023-07-09T05:46:02;8.85;;;5.40;;
5987;SDS011;3021;51.000;6.980;2023-07-09T05:48:28;10.20;;;4.85;;
5987;SDS011;3021;51.000;6.980;2023-07-09T05:50:53;7.13;;;4.65;;
5987;SDS011;3021;51.000;6.980;2023-07-09T05:53:22;6.28;;;5.03;;
5987;SDS011;3021;51.000;6.980;2023-07-09T05:55:48;6.35;;;5.20;;
5987;SDS011;3021;51.000;6.980;2023-07-09T05:58:14;7.88;;;5.22;;
5987;SDS011;3021;51.000;6.980;2023-07-09T06:00:39;9.43;;;5.28;;
5987;SDS011;3021;51.000;6.980;2023-07-09T06:03:06;10.30;;;5.50;;
5987;SDS011;3021;51.000;6.980;2023-07-09T06:05:32;8.57;;;5.00;;
5987;SDS011;3021;51.000;6.980;2023-07-09T06:07:59;9.43;;;5.50;;
5987;SDS011;3021;51.000;6.980;2023-07-09T06:10:24;6.93;;;5.25;;
5987;SDS011;3021;51.000;6.980;2023-07-09T06:12:49;9.02;;;5.38;;
5987;SDS011;3021;51.000;6.980;2023-07-09T06:15:15;7.13;;;5.00;;
5987;SDS011;3021;51.000;6.980;2023-07-09T06:17:40;6.53;;;4.95;;
5987;SDS011;3021;51.000;6.980;2023-07-09T06:20:07;10.15;;;5.28;;
5987;SDS011;3021;51.000;6.980;2023-07-09T06:22:33;6.63;;;4.47;;
5987;SDS011;3021;51.000;6.980;2023-07-09T06:24:58;10.50;;;5.78;;
5987;SDS011;3021;51.000;6.980;2023-07-09T06:27:23;7.88;;;5.10;;
5987;SDS011;3021;51.000;6.980;2023-07-09T06:29:49;7.75;;;5.43;;
5987;SDS011;3021;51.000;6.980;2023-07-09T06:32:14;8.02;;;5.13;;
5987;SDS011;3021;51.000;6.980;2023-07-09T06:34:40;10.40;;;4.72;;
5987;SDS011;3021;51.000;6.980;2023-07-09T06:37:05;10.27;;;5.00;;
5987;SDS011;3021;51.000;6.980;2023-07-09T06:39:31;9.50;;;4.25;;
5987;SDS011;3021;51.000;6.980;2023-07-09T06:41:56;10.27;;;4.72;;
5987;SDS011;3021;51.000;6.980;2023-07-09T06:44:21;9.05;;;4.63;;
5987;SDS011;3021;51.000;6.980;2023-07-09T06:46:46;5.70;;;4.50;;
5987;SDS011;3021;51.000;6.980;2023-07-09T06:49:12;8.27;;;4.93;;
5987;SDS011;3021;51.000;6.980;2023-07-09T06:51:38;8.35;;;4.85;;
5987;SDS011;3021;51.000;6.980;2023-07-09T06:54:04;11.35;;;5.50;;
5987;SDS011;3021;51.000;6.980;2023-07-09T06:56:30;8.60;;;4.43;;
5987;SDS011;3021;51.000;6.980;2023-07-09T06:58:56;8.57;;;4.85;;
5987;SDS011;3021;51.000;6.980;2023-07-09T07:01:22;7.22;;;4.88;;
5987;SDS011;3021;51.000;6.980;2023-07-09T07:03:47;8.95;;;4.80;;
5987;SDS011;3021;51.000;6.980;2023-07-09T07:06:13;8.30;;;4.85;;
5987;SDS011;3021;51.000;6.980;2023-07-09T07:08:38;6.60;;;4.95;;
5987;SDS011;3021;51.000;6.980;2023-07-09T07:11:04;8.48;;;4.78;;
5987;SDS011;3021;51.000;6.980;2023-07-09T07:13:40;7.30;;;4.70;;
5987;SDS011;3021;51.000;6.980;2023-07-09T07:16:07;9.18;;;5.32;;
5987;SDS011;3021;51.000;6.980;2023-07-09T07:18:34;13.30;;;5.25;;
5987;SDS011;3021;51.000;6.980;2023-07-09T07:21:00;6.53;;;4.82;;
5987;SDS011;3021;51.000;6.980;2023-07-09T07:23:26;7.18;;;4.80;;
5987;SDS011;3021;51.000;6.980;2023-07-09T07:25:52;10.07;;;5.05;;
5987;SDS011;3021;51.000;6.980;2023-07-09T07:28:17;8.23;;;4.97;;
5987;SDS011;3021;51.000;6.980;2023-07-09T07:30:43;11.63;;;4.97;;
5987;SDS011;3021;51.000;6.980;2023-07-09T07:33:09;8.20;;;5.20;;
5987;SDS011;3021;51.000;6.980;2023-07-09T07:35:34;8.07;;;4.45;;
5987;SDS011;3021;51.000;6.980;2023-07-09T07:38:00;9.57;;;5.68;;
5987;SDS011;3021;51.000;6.980;2023-07-09T07:40:25;6.45;;;4.65;;
5987;SDS011;3021;51.000;6.980;2023-07-09T07:42:50;8.23;;;4.97;;
5987;SDS011;3021;51.000;6.980;2023-07-09T07:45:16;8.25;;;5.43;;
5987;SDS011;3021;51.000;6.980;2023-07-09T07:47:41;7.20;;;4.57;;
5987;SDS011;3021;51.000;6.980;2023-07-09T07:50:07;7.97;;;5.25;;
5987;SDS011;3021;51.000;6.980;2023-07-09T07:52:33;8.13;;;4.90;;
5987;SDS011;3021;51.000;6.980;2023-07-09T07:55:02;7.57;;;4.47;;
5987;SDS011;3021;51.000;6.980;2023-07-09T07:57:30;7.57;;;5.32;;
5987;SDS011;3021;51.000;6.980;2023-07-09T07:59:56;7.25;;;5.03;;
5987;SDS011;3021;51.000;6.980;2023-07-09T08:02:22;11.05;;;5.15;;
5987;SDS011;3021;51.000;6.980;2023-07-09T08:04:49;8.25;;;4.57;;
5987;SDS011;3021;51.000;6.980;2023-07-09T08:07:16;6.80;;;4.80;;
5987;SDS011;3021;51.000;6.980;2023-07-09T08:09:43;8.05;;;4.88;;
5987;SDS011;3021;51.000;6.980;2023-07-09T08:12:09;8.80;;;4.30;;
5987;SDS011;3021;51.000;6.980;2023-07-09T08:14:37;11.75;;;5.13;;
5987;SDS011;3021;51.000;6.980;2023-07-09T08:17:02;8.88;;;4.53;;
5987;SDS011;3021;51.000;6.980;2023-07-09T08:19:28;6.75;;;4.57;;
5987;SDS011;3021;51.000;6.980;2023-07-09T08:21:53;8.27;;;4.68;;
5987;SDS011;3021;51.000;6.980;2023-07-09T08:24:18;12.88;;;4.78;;
5987;SDS011;3021;51.000;6.980;2023-07-09T08:26:44;8.10;;;4.18;;
5987;SDS011;3021;51.000;6.980;2023-07-09T08:29:09;5.50;;;4.20;;
5987;SDS011;3021;51.000;6.980;2023-07-09T08:31:35;8.30;;;4.50;;
5987;SDS011;3021;51.000;6.980;2023-07-09T08:34:00;9.75;;;4.43;;
5987;SDS011;3021;51.000;6.980;2023-07-09T08:36:26;7.32;;;4.45;;
5987;SDS011;3021;51.000;6.980;2023-07-09T08:38:52;6.32;;;4.20;;
5987;SDS011;3021;51.000;6.980;2023-07-09T08:41:36;7.30;;;4.20;;
5987;SDS011;3021;51.000;6.980;2023-07-09T08:49:40;9.40;;;3.90;;
5987;SDS011;3021;51.000;6.980;2023-07-09T08:52:17;6.15;;;4.10;;
5987;SDS011;3021;51.000;6.980;2023-07-09T08:54:51;6.97;;;3.80;;
5987;SDS011;3021;51.000;6.980;2023-07-09T09:00:01;5.50;;;3.53;;
5987;SDS011;3021;51.000;6.980;2023-07-09T09:02:34;4.85;;;3.47;;
5987;SDS011;3021;51.000;6.980;2023-07-09T09:05:04;4.97;;;3.83;;
5987;SDS011;3021;51.000;6.980;2023-07-09T09:07:42;9.73;;;4.22;;
5987;SDS011;3021;51.000;6.980;2023-07-09T09:10:29;7.57;;;3.55;;
5987;SDS011;3021;51.000;6.980;2023-07-09T09:13:10;5.78;;;4.22;;
5987;SDS011;3021;51.000;6.980;2023-07-09T09:15:42;8.60;;;4.25;;
5987;SDS011;3021;51.000;6.980;2023-07-09T09:18:23;7.20;;;3.72;;
5987;SDS011;3021;51.000;6.980;2023-07-09T09:21:02;5.75;;;4.03;;
5987;SDS011;3021;51.000;6.980;2023-07-09T09:23:39;8.13;;;3.95;;
5987;SDS011;3021;51.000;6.980;2023-07-09T09:26:17;4.60;;;3.63;;
5987;SDS011;3021;51.000;6.980;2023-07-09T09:28:46;5.85;;;3.70;;
5987;SDS011;3021;51.000;6.980;2023-07-09T09:31:12;8.60;;;4.15;;
5987;SDS011;3021;51.000;6.980;2023-07-09T09:33:42;5.85;;;3.88;;
5987;SDS011;3021;51.000;6.980;2023-07-09T09:36:17;5.40;;;3.67;;
5987;SDS011;3021;51.000;6.980;2023-07-09T09:38:45;7.22;;;3.88;;
5987;SDS011;3021;51.000;6.980;2023-07-09T09:41:17;6.68;;;3.83;;
5987;SDS011;3021;51.000;6.980;2023-07-09T09:43:45;6.60;;;3.95;;
5987;SDS011;3021;51.000;6.980;2023-07-09T09:46:22;5.85;;;3.80;;
5987;SDS011;3021;51.000;6.980;2023-07-09T09:48:50;5.50;;;3.78;;
5987;SDS011;3021;51.000;6.980;2023-07-09T09:51:18;6.75;;;3.63;;
5987;SDS011;3021;51.000;6.980;2023-07-09T09:53:46;7.20;;;4.03;;
5987;SDS011;3021;51.000;6.980;2023-07-09T09:56:15;6.45;;;3.92;;
5987;SDS011;3021;51.000;6.980;2023-07-09T09:58:53;7.25;;;4.05;;
5987;SDS011;3021;51.000;6.980;2023-07-09T10:01:24;5.15;;;3.70;;
5987;SDS011;3021;51.000;6.980;2023-07-09T10:03:54;5.47;;;3.90;;
5987;SDS011;3021;51.000;6.980;2023-07-09T10:06:23;6.65;;;3.88;;
5987;SDS011;3021;51.000;6.980;2023-07-09T10:11:31;5.70;;;3.50;;
5987;SDS011;3021;51.000;6.980;2023-07-09T10:14:03;10.15;;;4.50;;
5987;SDS011;3021;51.000;6.980;2023-07-09T10:16:45;7.28;;;4.40;;
5987;SDS011;3021;51.000;6.980;2023-07-09T10:19:20;8.18;;;3.80;;
5987;SDS011;3021;51.000;6.980;2023-07-09T10:21:57;5.43;;;4.10;;
5987;SDS011;3021;51.000;6.980;2023-07-09T10:27:24;4.97;;;3.90;;
5987;SDS011;3021;51.000;6.980;2023-07-09T10:35:04;7.57;;;4.07;;
5987;SDS011;3021;51.000;6.980;2023-07-09T10:40:23;7.03;;;3.92;;
5987;SDS011;3021;51.000;6.980;2023-07-09T10:43:13;7.25;;;3.83;;
5987;SDS011;3021;51.000;6.980;2023-07-09T10:46:02;9.18;;;3.90;;
5987;SDS011;3021;51.000;6.980;2023-07-09T10:48:43;9.15;;;4.50;;
5987;SDS011;3021;51.000;6.980;2023-07-09T10:54:16;6.15;;;3.90;;
5987;SDS011;3021;51.000;6.980;2023-07-09T10:56:56;7.28;;;4.25;;
5987;SDS011;3021;51.000;6.980;2023-07-09T10:59:29;6.85;;;3.47;;
5987;SDS011;3021;51.000;6.980;2023-07-09T11:02:12;5.85;;;3.90;;
5987;SDS011;3021;51.000;6.980;2023-07-09T11:05:04;10.50;;;3.40;;
5987;SDS011;3021;51.000;6.980;2023-07-09T11:10:19;6.32;;;3.70;;
5987;SDS011;3021;51.000;6.980;2023-07-09T11:13:11;6.60;;;3.78;;
5987;SDS011;3021;51.000;6.980;2023-07-09T11:15:45;5.78;;;3.60;;
5987;SDS011;3021;51.000;6.980;2023-07-09T11:18:16;6.30;;;3.63;;
5987;SDS011;3021;51.000;6.980;2023-07-09T11:20:54;6.53;;;3.80;;
5987;SDS011;3021;51.000;6.980;2023-07-09T11:23:24;6.70;;;3.50;;
5987;SDS011;3021;51.000;6.980;2023-07-09T11:26:01;6.28;;;3.58;;
5987;SDS011;3021;51.000;6.980;2023-07-09T11:28:38;4.60;;;3.58;;
5987;SDS011;3021;51.000;6.980;2023-07-09T11:31:15;4.75;;;3.17;;
5987;SDS011;3021;51.000;6.980;2023-07-09T11:33:49;7.00;;;3.50;;
5987;SDS011;3021;51.000;6.980;2023-07-09T11:36:25;4.85;;;3.47;;
5987;SDS011;3021;51.000;6.980;2023-07-09T11:38:52;5.55;;;3.47;;
5987;SDS011;3021;51.000;6.980;2023-07-09T11:44:04;5.45;;;3.60;;
5987;SDS011;3021;51.000;6.980;2023-07-09T11:46:40;9.65;;;4.22;;
5987;SDS011;3021;51.000;6.980;2023-07-09T11:49:15;7.90;;;4.03;;
5987;SDS011;3021;51.000;6.980;2023-07-09T11:51:44;7.80;;;3.85;;
5987;SDS011;3021;51.000;6.980;2023-07-09T11:54:12;7.15;;;3.95;;
5987;SDS011;3021;51.000;6.980;2023-07-09T11:56:40;6.05;;;3.50;;
5987;SDS011;3021;51.000;6.980;2023-07-09T11:59:05;7.95;;;3.95;;
5987;SDS011;3021;51.000;6.980;2023-07-09T12:01:43;6.80;;;3.90;;
5987;SDS011;3021;51.000;6.980;2023-07-09T12:04:12;8.70;;;3.90;;
5987;SDS011;3021;51.000;6.980;2023-07-09T12:06:40;5.85;;;4.30;;
5987;SDS011;3021;51.000;6.980;2023-07-09T12:09:05;6.75;;;3.80;;
5987;SDS011;3021;51.000;6.980;2023-07-09T12:11:32;9.15;;;3.95;;
5987;SDS011;3021;51.000;6.980;2023-07-09T12:14:12;5.88;;;4.00;;
5987;SDS011;3021;51.000;6.980;2023-07-09T12:16:40;9.05;;;3.70;;
5987;SDS011;3021;51.000;6.980;2023-07-09T12:19:08;6.72;;;4.32;;
5987;SDS011;3021;51.000;6.980;2023-07-09T12:21:37;5.20;;;3.72;;
5987;SDS011;3021;51.000;6.980;2023-07-09T12:24:11;5.70;;;3.67;;
5987;SDS011;3021;51.000;6.980;2023-07-09T12:26:43;6.43;;;3.60;;
5987;SDS011;3021;51.000;6.980;2023-07-09T12:29:08;6.17;;;3.50;;
5987;SDS011;3021;51.000;6.980;2023-07-09T12:31:35;11.38;;;3.78;;
5987;SDS011;3021;51.000;6.980;2023-07-09T12:34:00;5.50;;;3.60;;
5987;SDS011;3021;51.000;6.980;2023-07-09T12:36:26;7.47;;;4.00;;
5987;SDS011;3021;51.000;6.980;2023-07-09T12:38:53;6.22;;;3.80;;
5987;SDS011;3021;51.000;6.980;2023-07-09T12:41:26;4.97;;;3.92;;
5987;SDS011;3021;51.000;6.980;2023-07-09T12:44:03;7.95;;;4.10;;
5987;SDS011;3021;51.000;6.980;2023-07-09T12:46:28;8.93;;;4.15;;
5987;SDS011;3021;51.000;6.980;2023-07-09T12:48:54;6.85;;;4.00;;
5987;SDS011;3021;51.000;6.980;2023-07-09T12:51:24;6.22;;;4.03;;
5987;SDS011;3021;51.000;6.980;2023-07-09T12:56:42;6.65;;;3.83;;
5987;SDS011;3021;51.000;6.980;2023-07-09T13:04:16;8.43;;;4.60;;
5987;SDS011;3021;51.000;6.980;2023-07-09T13:06:42;12.30;;;4.65;;
5987;SDS011;3021;51.000;6.980;2023-07-09T13:09:11;6.38;;;4.00;;
5987;SDS011;3021;51.000;6.980;2023-07-09T13:11:44;13.52;;;5.78;;
5987;SDS011;3021;51.000;6.980;2023-07-09T13:14:16;8.57;;;4.45;;
5987;SDS011;3021;51.000;6.980;2023-07-09T13:16:44;11.70;;;4.22;;
5987;SDS011;3021;51.000;6.980;2023-07-09T13:19:09;8.55;;;4.30;;
5987;SDS011;3021;51.000;6.980;2023-07-09T13:21:35;6.90;;;4.03;;
5987;SDS011;3021;51.000;6.980;2023-07-09T13:24:04;7.90;;;4.30;;
5987;SDS011;3021;51.000;6.980;2023-07-09T13:26:37;7.35;;;4.05;;
5987;SDS011;3021;51.000;6.980;2023-07-09T13:29:02;9.23;;;4.30;;
5987;SDS011;3021;51.000;6.980;2023-07-09T13:31:28;9.23;;;4.43;;
5987;SDS011;3021;51.000;6.980;2023-07-09T13:33:54;9.82;;;4.13;;
5987;SDS011;3021;51.000;6.980;2023-07-09T13:36:23;9.52;;;4.88;;
5987;SDS011;3021;51.000;6.980;2023-07-09T13:38:49;6.30;;;4.22;;
5987;SDS011;3021;51.000;6.980;2023-07-09T13:41:16;9.77;;;4.28;;
5987;SDS011;3021;51.000;6.980;2023-07-09T13:43:44;7.78;;;4.63;;
5987;SDS011;3021;51.000;6.980;2023-07-09T13:46:11;8.70;;;4.60;;
5987;SDS011;3021;51.000;6.980;2023-07-09T13:48:37;8.45;;;4.25;;
5987;SDS011;3021;51.000;6.980;2023-07-09T13:51:15;7.43;;;4.43;;
5987;SDS011;3021;51.000;6.980;2023-07-09T13:53:43;6.15;;;4.53;;
5987;SDS011;3021;51.000;6.980;2023-07-09T13:56:09;10.80;;;4.60;;
5987;SDS011;3021;51.000;6.980;2023-07-09T13:58:34;5.90;;;3.97;;
5987;SDS011;3021;51.000;6.980;2023-07-09T14:01:01;8.02;;;4.80;;
5987;SDS011;3021;51.000;6.980;2023-07-09T14:03:35;7.40;;;4.57;;
5987;SDS011;3021;51.000;6.980;2023-07-09T14:06:01;7.47;;;4.43;;
5987;SDS011;3021;51.000;6.980;2023-07-09T14:08:26;8.45;;;3.97;;
5987;SDS011;3021;51.000;6.980;2023-07-09T14:10:51;13.50;;;4.00;;
5987;SDS011;3021;51.000;6.980;2023-07-09T14:13:18;7.93;;;3.85;;
5987;SDS011;3021;51.000;6.980;2023-07-09T14:15:46;8.95;;;3.88;;
5987;SDS011;3021;51.000;6.980;2023-07-09T14:18:17;10.27;;;3.95;;
5987;SDS011;3021;51.000;6.980;2023-07-09T14:20:44;8.90;;;3.75;;
5987;SDS011;3021;51.000;6.980;2023-07-09T14:23:10;9.88;;;4.15;;
5987;SDS011;3021;51.000;6.980;2023-07-09T14:25:37;5.60;;;3.90;;
5987;SDS011;3021;51.000;6.980;2023-07-09T14:28:04;7.60;;;4.15;;
5987;SDS011;3021;51.000;6.980;2023-07-09T14:30:33;11.82;;;4.43;;
5987;SDS011;3021;51.000;6.980;2023-07-09T14:32:59;8.80;;;3.88;;
5987;SDS011;3021;51.000;6.980;2023-07-09T14:35:25;8.10;;;4.13;;
5987;SDS011;3021;51.000;6.980;2023-07-09T14:37:52;8.32;;;3.92;;
5987;SDS011;3021;51.000;6.980;2023-07-09T14:40:19;7.00;;;4.00;;
5987;SDS011;3021;51.000;6.980;2023-07-09T14:42:46;9.60;;;3.65;;
5987;SDS011;3021;51.000;6.980;2023-07-09T14:45:30;10.15;;;4.82;;
5987;SDS011;3021;51.000;6.980;2023-07-09T14:47:57;14.25;;;5.00;;
5987;SDS011;3021;51.000;6.980;2023-07-09T14:50:23;12.40;;;4.13;;
5987;SDS011;3021;51.000;6.980;2023-07-09T14:52:49;10.43;;;4.30;;
5987;SDS011;3021;51.000;6.980;2023-07-09T14:55:19;8.10;;;4.28;;
5987;SDS011;3021;51.000;6.980;2023-07-09T14:57:46;11.55;;;4.18;;
5987;SDS011;3021;51.000;6.980;2023-07-09T15:00:19;12.05;;;4.57;;
5987;SDS011;3021;51.000;6.980;2023-07-09T15:02:46;9.75;;;4.30;;
5987;SDS011;3021;51.000;6.980;2023-07-09T15:05:15;11.45;;;4.18;;
5987;SDS011;3021;51.000;6.980;2023-07-09T15:07:50;6.25;;;3.50;;
5987;SDS011;3021;51.000;6.980;2023-07-09T15:10:17;6.82;;;4.18;;
5987;SDS011;3021;51.000;6.980;2023-07-09T15:12:47;6.78;;;3.60;;
5987;SDS011;3021;51.000;6.980;2023-07-09T15:15:15;9.40;;;4.55;;
5987;SDS011;3021;51.000;6.980;2023-07-09T15:17:46;7.32;;;4.18;;
5987;SDS011;3021;51.000;6.980;2023-07-09T15:20:22;7.05;;;3.67;;
5987;SDS011;3021;51.000;6.980;2023-07-09T15:22:49;7.65;;;4.00;;
5987;SDS011;3021;51.000;6.980;2023-07-09T15:25:17;7.85;;;3.63;;
5987;SDS011;3021;51.000;6.980;2023-07-09T15:27:47;8.25;;;3.97;;
5987;SDS011;3021;51.000;6.980;2023-07-09T15:32:39;6.28;;;3.80;;
5987;SDS011;3021;51.000;6.980;2023-07-09T15:35:05;6.38;;;3.90;;
5987;SDS011;3021;51.000;6.980;2023-07-09T15:37:30;8.75;;;3.80;;
5987;SDS011;3021;51.000;6.980;2023-07-09T15:39:56;4.25;;;3.53;;
5987;SDS011;3021;51.000;6.980;2023-07-09T15:42:21;4.60;;;3.60;;
5987;SDS011;3021;51.000;6.980;2023-07-09T15:44:46;8.00;;;3.53;;
5987;SDS011;3021;51.000;6.980;2023-07-09T15:47:15;5.78;;;3.55;;
5987;SDS011;3021;51.000;6.980;2023-07-09T15:49:43;7.88;;;4.03;;
5987;SDS011;3021;51.000;6.980;2023-07-09T15:52:09;7.72;;;4.22;;
5987;SDS011;3021;51.000;6.980;2023-07-09T15:54:34;7.47;;;4.40;;
5987;SDS011;3021;51.000;6.980;2023-07-09T15:57:00;5.57;;;4.07;;
5987;SDS011;3021;51.000;6.980;2023-07-09T15:59:30;7.05;;;4.13;;
5987;SDS011;3021;51.000;6.980;2023-07-09T16:01:57;8.98;;;4.47;;
5987;SDS011;3021;51.000;6.980;2023-07-09T16:04:24;8.98;;;4.80;;
5987;SDS011;3021;51.000;6.980;2023-07-09T16:06:49;7.10;;;4.07;;